Indian Springs, Nevada
Current Conditions -  °F | °C
As of 3:58 PM on Wednesday 22 Oct 2014 (Local Time) from KINS Reporting Station
Clear Clear  
Wind Chill: 79°   Ceiling: Unl
Heat Index: 79°   Visibility: 7mi
Dew Point: 21°   Wind: 2mph
Humidity: 11%   Direction: 100°E
Pressure: 30.04"   Gusts: NA
Location:  36.57°N, 115.67°W
Report Text: KINS 222258Z AUTO 10002KT 7SM CLR 26/M06 A3004 RMK AO2 SLP139 T02631062
Loading
Personal Weather Stations






























Interactive Weather Map
Tropical Storm Tracking
New forecast layout! Learn more

10-Day Weather Forecast

Advertisements
Track Severe Weather on mobile